地図

経路データ

SID SEASON NUMBER BASIN SUBBASIN NAME ISO_TIME NATURE LAT LON WMO_WIND WMO_PRES WMO_AGENCY TRACK_TYPE DIST2LAND LANDFALL IFLAG USA_AGENCY USA_ATCF_ID USA_LAT USA_LON USA_RECORD USA_STATUS USA_WIND USA_PRES USA_SSHS USA_R34_NE USA_R34_SE USA_R34_SW USA_R34_NW USA_R50_NE USA_R50_SE USA_R50_SW USA_R50_NW USA_R64_NE USA_R64_SE USA_R64_SW USA_R64_NW USA_POCI USA_ROCI USA_RMW USA_EYE TOKYO_LAT TOKYO_LON TOKYO_GRADE TOKYO_WIND TOKYO_PRES TOKYO_R50_DIR TOKYO_R50_LONG TOKYO_R50_SHORT TOKYO_R30_DIR TOKYO_R30_LONG TOKYO_R30_SHORT TOKYO_LAND CMA_LAT CMA_LON CMA_CAT CMA_WIND CMA_PRES HKO_LAT HKO_LON HKO_CAT HKO_WIND HKO_PRES NEWDELHI_LAT NEWDELHI_LON NEWDELHI_GRADE NEWDELHI_WIND NEWDELHI_PRES NEWDELHI_CI NEWDELHI_DP NEWDELHI_POCI REUNION_LAT REUNION_LON REUNION_TYPE REUNION_WIND REUNION_PRES REUNION_TNUM REUNION_CI REUNION_RMW REUNION_R34_NE REUNION_R34_SE REUNION_R34_SW REUNION_R34_NW REUNION_R50_NE REUNION_R50_SE REUNION_R50_SW REUNION_R50_NW REUNION_R64_NE REUNION_R64_SE REUNION_R64_SW REUNION_R64_NW BOM_LAT BOM_LON BOM_TYPE BOM_WIND BOM_PRES BOM_TNUM BOM_CI BOM_RMW BOM_R34_NE BOM_R34_SE BOM_R34_SW BOM_R34_NW BOM_R50_NE BOM_R50_SE BOM_R50_SW BOM_R50_NW BOM_R64_NE BOM_R64_SE BOM_R64_SW BOM_R64_NW BOM_ROCI BOM_POCI BOM_EYE BOM_POS_METHOD BOM_PRES_METHOD NADI_LAT NADI_LON NADI_CAT NADI_WIND NADI_PRES WELLINGTON_LAT WELLINGTON_LON WELLINGTON_WIND WELLINGTON_PRES DS824_LAT DS824_LON DS824_STAGE DS824_WIND DS824_PRES TD9636_LAT TD9636_LON TD9636_STAGE TD9636_WIND TD9636_PRES TD9635_LAT TD9635_LON TD9635_WIND TD9635_PRES TD9635_ROCI NEUMANN_LAT NEUMANN_LON NEUMANN_CLASS NEUMANN_WIND NEUMANN_PRES MLC_LAT MLC_LON MLC_CLASS MLC_WIND MLC_PRES USA_GUST BOM_GUST BOM_GUST_PER REUNION_GUST REUNION_GUST_PER USA_SEAHGT USA_SEARAD_NE USA_SEARAD_SE USA_SEARAD_SW USA_SEARAD_NW STORM_SPEED STORM_DIR
1890314N09133 1890 40 WP MM NOT_NAMED 1890-11-09 16:00:00 NR 9.30000 133.200 main 748 581 __________O___ -1 9.30000 133.200 7 59 296
1890314N09133 1890 40 WP MM NOT_NAMED 1890-11-09 18:00:00 NR 10.1582 131.430 main 581 341 __________P___ -1 10.1582 131.430 7 57 296
1890314N09133 1890 40 WP MM NOT_NAMED 1890-11-09 21:00:00 NR 11.3793 128.864 main 341 121 __________P___ -1 11.3793 128.864 7 53 296
1890314N09133 1890 40 WP MM NOT_NAMED 1890-11-10 00:00:00 NR 12.4460 126.579 main 121 55 __________P___ -1 12.4460 126.579 7 44 295
1890314N09133 1890 40 WP MM NOT_NAMED 1890-11-10 03:00:00 NR 13.2834 124.766 main 62 15 __________P___ -1 13.2834 124.766 7 37 295
1890314N09133 1890 40 WP MM NOT_NAMED 1890-11-10 04:00:00 NR 13.5000 124.300 main 10 0 __________O___ -1 13.5000 124.300 3 25 296
1890314N09133 1890 40 WP MM NOT_NAMED 1890-11-10 06:00:00 NR 13.8335 123.595 main 0 0 __________P___ -1 13.8335 123.595 3 17 297
1890314N09133 1890 40 WP MM NOT_NAMED 1890-11-10 09:00:00 NR 14.1353 122.997 main 0 0 __________P___ -1 14.1353 122.997 3 9 299
1890314N09133 1890 40 WP MM NOT_NAMED 1890-11-10 12:00:00 NR 14.2836 122.754 main 11 11 __________P___ -1 14.2836 122.754 3 4 305
1890314N09133 1890 40 WP MM NOT_NAMED 1890-11-10 15:00:00 NR 14.3696 122.645 main 22 22 __________P___ -1 14.3696 122.645 3 3 308
1890314N09133 1890 40 WP MM NOT_NAMED 1890-11-10 16:00:00 NR 14.4000 122.600 main 22 22 __________O___ -1 14.4000 122.600 4 7 298
1890314N09133 1890 40 WP MM NOT_NAMED 1890-11-10 18:00:00 NR 14.5386 122.318 main 35 21 __________P___ -1 14.5386 122.318 4 9 296
1890314N09133 1890 40 WP MM NOT_NAMED 1890-11-10 21:00:00 NR 14.7341 121.906 main 21 0 __________P___ -1 14.7341 121.906 4 9 296
1890314N09133 1890 40 WP MM NOT_NAMED 1890-11-11 00:00:00 NR 14.9092 121.526 main 0 0 __________P___ -1 14.9092 121.526 4 8 295
1890314N09133 1890 40 WP MM NOT_NAMED 1890-11-11 03:00:00 NR 15.0576 121.196 main 0 0 __________P___ -1 15.0576 121.196 4 7 295
1890314N09133 1890 40 WP MM NOT_NAMED 1890-11-11 04:00:00 NR 15.1000 121.100 main 0 0 __________O___ -1 15.1000 121.100 4 6 295
1890314N09133 1890 40 WP MM NOT_NAMED 1890-11-11 06:00:00 NR 15.1778 120.932 main 0 0 __________P___ -1 15.1778 120.932 4 5 296
1890314N09133 1890 40 WP MM NOT_NAMED 1890-11-11 09:00:00 NR 15.2697 120.731 main 0 0 __________P___ -1 15.2697 120.731 4 4 295
1890314N09133 1890 40 WP MM NOT_NAMED 1890-11-11 12:00:00 NR 15.3372 120.574 main 0 0 __________P___ -1 15.3372 120.574 4 3 293
1890314N09133 1890 40 WP MM NOT_NAMED 1890-11-11 15:00:00 NR 15.3866 120.442 main 0 0 __________P___ -1 15.3866 120.442 4 3 290
1890314N09133 1890 40 WP MM NOT_NAMED 1890-11-11 16:00:00 NR 15.4000 120.400 main 0 0 __________O___ -1 15.4000 120.400 4 3 284
1890314N09133 1890 40 WP MM NOT_NAMED 1890-11-11 18:00:00 NR 15.4175 120.310 main 0 0 __________P___ -1 15.4175 120.310 4 2 279
1890314N09133 1890 40 WP MM NOT_NAMED 1890-11-11 21:00:00 NR 15.4310 120.189 main 0 0 __________P___ -1 15.4310 120.189 4 2 277
1890314N09133 1890 40 WP MM NOT_NAMED 1890-11-12 00:00:00 NR 15.4458 120.071 main 0 0 __________P___ -1 15.4458 120.071 4 2 282
1890314N09133 1890 40 WP MM NOT_NAMED 1890-11-12 03:00:00 NR 15.4807 119.946 main 10 10 __________P___ -1 15.4807 119.946 4 3 288
1890314N09133 1890 40 WP MM NOT_NAMED 1890-11-12 04:00:00 NR 15.5000 119.900 main 10 10 __________O___ -1 15.5000 119.900 4 3 304
1890314N09133 1890 40 WP MM NOT_NAMED 1890-11-12 06:00:00 NR 15.5683 119.808 main 15 15 __________P___ -1 15.5683 119.808 4 4 310
1890314N09133 1890 40 WP MM NOT_NAMED 1890-11-12 09:00:00 NR 15.6961 119.657 main 21 24 __________P___ -1 15.6961 119.657 4 4 311
1890314N09133 1890 40 WP MM NOT_NAMED 1890-11-12 12:00:00 NR 15.8351 119.484 main 30 24 __________P___ -1 15.8351 119.484 4 5 306
1890314N09133 1890 40 WP MM NOT_NAMED 1890-11-12 15:00:00 NR 15.9634 119.278 main 42 42 __________P___ -1 15.9634 119.278 4 5 301
1890314N09133 1890 40 WP MM NOT_NAMED 1890-11-12 16:00:00 NR 16.0000 119.200 main 53 53 __________O___ -1 16.0000 119.200 4 5 293
1890314N09133 1890 40 WP MM NOT_NAMED 1890-11-12 18:00:00 NR 16.0636 119.029 main 75 75 __________P___ -1 16.0636 119.029 4 6 288
1890314N09133 1890 40 WP MM NOT_NAMED 1890-11-12 21:00:00 NR 16.1404 118.740 main 107 107 __________P___ -1 16.1404 118.740 4 6 282
1890314N09133 1890 40 WP MM NOT_NAMED 1890-11-13 00:00:00 NR 16.1892 118.427 main 140 140 __________P___ -1 16.1892 118.427 4 6 276
1890314N09133 1890 40 WP MM NOT_NAMED 1890-11-13 03:00:00 NR 16.2038 118.106 main 172 172 __________P___ -1 16.2038 118.106 4 6 272
1890314N09133 1890 40 WP MM NOT_NAMED 1890-11-13 04:00:00 NR 16.2000 118.000 main 183 183 __________O___ -1 16.2000 118.000 4 6 265
1890314N09133 1890 40 WP MM NOT_NAMED 1890-11-13 06:00:00 NR 16.1758 117.802 main 204 204 __________P___ -1 16.1758 117.802 4 6 259
1890314N09133 1890 40 WP MM NOT_NAMED 1890-11-13 09:00:00 NR 16.1080 117.506 main 235 235 __________P___ -1 16.1080 117.506 4 6 255
1890314N09133 1890 40 WP MM NOT_NAMED 1890-11-13 12:00:00 NR 16.0191 117.208 main 267 267 __________P___ -1 16.0191 117.208 4 6 253
1890314N09133 1890 40 WP MM NOT_NAMED 1890-11-13 15:00:00 NR 15.9277 116.903 main 299 299 __________P___ -1 15.9277 116.903 4 6 253
1890314N09133 1890 40 WP MM NOT_NAMED 1890-11-13 16:00:00 NR 15.9000 116.800 main 310 310 __________O___ -1 15.9000 116.800 4 6 258
1890314N09133 1890 40 WP MM NOT_NAMED 1890-11-13 18:00:00 NR 15.8635 116.594 main 331 331 __________P___ -1 15.8635 116.594 4 6 260
1890314N09133 1890 40 WP MM NOT_NAMED 1890-11-13 21:00:00 NR 15.8151 116.280 main 364 364 __________P___ -1 15.8151 116.280 4 6 261
1890314N09133 1890 40 WP MM NOT_NAMED 1890-11-14 00:00:00 NR 15.7689 115.955 main 396 407 __________P___ -1 15.7689 115.955 4 6 261
1890314N09133 1890 40 WP MM NOT_NAMED 1890-11-14 03:00:00 NR 15.7187 115.616 main 440 440 __________P___ -1 15.7187 115.616 4 7 261
1890314N09133 1890 40 WP MM NOT_NAMED 1890-11-14 04:00:00 NR 15.7000 115.500 main 450 450 __________O___ -1 15.7000 115.500 4 7 259
1890314N09133 1890 40 WP MM NOT_NAMED 1890-11-14 06:00:00 NR 15.6556 115.267 main 472 482 __________P___ -1 15.6556 115.267 4 7 258
1890314N09133 1890 40 WP MM NOT_NAMED 1890-11-14 09:00:00 NR 15.5827 114.904 main 515 515 __________P___ -1 15.5827 114.904 4 7 258
1890314N09133 1890 40 WP MM NOT_NAMED 1890-11-14 12:00:00 NR 15.5052 114.527 main 559 539 __________P___ -1 15.5052 114.527 4 8 258
1890314N09133 1890 40 WP MM NOT_NAMED 1890-11-14 15:00:00 NR 15.4261 114.134 main 539 531 __________P___ -1 15.4261 114.134 4 8 258
1890314N09133 1890 40 WP MM NOT_NAMED 1890-11-14 16:00:00 NR 15.4000 114.000 main 531 500 __________O___ -1 15.4000 114.000 7 8 259
1890314N09133 1890 40 WP MM NOT_NAMED 1890-11-14 18:00:00 NR 15.3550 113.739 main 500 456 __________P___ -1 15.3550 113.739 7 8 260
1890314N09133 1890 40 WP MM NOT_NAMED 1890-11-14 21:00:00 NR 15.2877 113.334 main 456 412 __________P___ -1 15.2877 113.334 7 8 260
1890314N09133 1890 40 WP MM NOT_NAMED 1890-11-15 00:00:00 NR 15.2153 112.909 main 412 368 __________P___ -1 15.2153 112.909 7 9 260
1890314N09133 1890 40 WP MM NOT_NAMED 1890-11-15 03:00:00 NR 15.1315 112.458 main 368 346 __________P___ -1 15.1315 112.458 7 9 259
1890314N09133 1890 40 WP MM NOT_NAMED 1890-11-15 04:00:00 NR 15.1000 112.300 main 346 313 __________O___ -1 15.1000 112.300 7 9 256
1890314N09133 1890 40 WP MM NOT_NAMED 1890-11-15 06:00:00 NR 15.0200 111.981 main 313 259 __________P___ -1 15.0200 111.981 7 10 255
1890314N09133 1890 40 WP MM NOT_NAMED 1890-11-15 09:00:00 NR 14.8874 111.476 main 259 193 __________P___ -1 14.8874 111.476 7 10 255
1890314N09133 1890 40 WP MM NOT_NAMED 1890-11-15 12:00:00 NR 14.7534 110.945 main 193 139 __________P___ -1 14.7534 110.945 7 11 256
1890314N09133 1890 40 WP MM NOT_NAMED 1890-11-15 15:00:00 NR 14.6339 110.390 main 139 118 __________P___ -1 14.6339 110.390 7 11 258
1890314N09133 1890 40 WP MM NOT_NAMED 1890-11-15 16:00:00 NR 14.6000 110.200 main 118 75 __________O___ -1 14.6000 110.200 7 11 261
1890314N09133 1890 40 WP MM NOT_NAMED 1890-11-15 18:00:00 NR 14.5434 109.814 main 75 10 __________P___ -1 14.5434 109.814 7 11 263
1890314N09133 1890 40 WP MM NOT_NAMED 1890-11-15 21:00:00 NR 14.4819 109.221 main 10 0 __________P___ -1 14.4819 109.221 7 12 265
1890314N09133 1890 40 WP MM NOT_NAMED 1890-11-16 00:00:00 NR 14.4404 108.616 main 0 0 __________P___ -1 14.4404 108.616 7 12 266
1890314N09133 1890 40 WP MM NOT_NAMED 1890-11-16 03:00:00 NR 14.4095 108.004 main 0 0 __________P___ -1 14.4095 108.004 7 12 267
1890314N09133 1890 40 WP MM NOT_NAMED 1890-11-16 04:00:00 NR 14.4000 107.800 main 0 __________O___ -1 14.4000 107.800 7 12 267

デジタル台風データ・検索

IBTrACS Databaseについて

本データベースは、米国NOAAが公開する1842年以降の世界の熱帯低気圧のベストトラックデータアーカイブInternational Best Track Archive for Climate Stewardship (IBTrACS)を、ウェブで閲覧しやすい形式に変換したものです。

最終更新日:2021-10-21